< < Back
Terminal Aerodrome Forecast


Current Version              Previous Versions:   1  2  3  4  5  6  7  8  9  

Terminal Aerodrome Forecast

574
FTUS42 KGSP 080539
TAFAND
TAF
KAND 080539Z 0806/0906 00000KT P6SM FEW250
     FM081300 23005KT P6SM BKN110
     FM081800 25010G19KT P6SM OVC070 PROB30 0818/0823 4SM -SHRA
      OVC040
     FM090200 27010KT P6SM SCT060=

Latest METAR

966
SAUS70 KWBC 082300 RRD
MTRAND
METAR KAND 082256Z AUTO 27016G21KT 10SM BKN100 09/M06 A2969 RMK AO2 PK
WND 26028/2205 SLP055 T00941061


USA.gov is the U.S. government's official web portal to all federal, state and local government web resources and services.